createdAt,value
2022-08-10T00:01:39.811Z,2.78
2022-08-10T00:04:06.997Z,2.50
2022-08-10T00:06:34.232Z,3.25
2022-08-10T00:09:01.393Z,2.75
2022-08-10T00:11:30.800Z,2.97
2022-08-10T00:13:57.984Z,3.08
2022-08-10T00:16:27.874Z,2.97
2022-08-10T00:18:54.628Z,2.92
2022-08-10T00:21:21.339Z,2.90
2022-08-10T00:23:53.731Z,2.85
2022-08-10T00:26:20.525Z,2.90
2022-08-10T00:28:48.887Z,3.15
2022-08-10T00:31:18.005Z,2.50
2022-08-10T00:33:44.731Z,2.90
2022-08-10T00:36:11.587Z,2.70
2022-08-10T00:38:40.547Z,2.80
2022-08-10T00:41:07.347Z,3.10
2022-08-10T00:43:34.272Z,3.20
2022-08-10T00:46:01.035Z,3.20
2022-08-10T00:48:29.980Z,3.08
2022-08-10T00:50:59.993Z,2.92
2022-08-10T00:53:28.702Z,3.22
2022-08-10T00:57:12.690Z,3.23
2022-08-10T00:58:43.455Z,3.13
2022-08-10T01:01:11.057Z,3.30
2022-08-10T01:04:57.815Z,3.13
2022-08-10T01:07:07.988Z,3.17
2022-08-10T01:09:37.732Z,3.55
2022-08-10T01:12:37.408Z,3.17
2022-08-10T01:15:50.928Z,2.92
2022-08-10T01:18:51.030Z,3.00
2022-08-10T01:21:26.041Z,3.50
2022-08-10T01:23:58.638Z,2.90
2022-08-10T01:26:40.736Z,3.00
2022-08-10T01:29:29.487Z,3.38
2022-08-10T01:32:02.099Z,3.20
2022-08-10T01:34:37.058Z,3.15
2022-08-10T01:37:10.017Z,3.35
2022-08-10T01:39:42.503Z,3.13
2022-08-10T01:42:16.057Z,3.40
2022-08-10T01:44:55.075Z,4.35
2022-08-10T01:47:48.396Z,3.20
2022-08-10T01:50:59.303Z,3.85
2022-08-10T01:53:41.146Z,3.50
2022-08-10T01:56:10.813Z,3.05
2022-08-10T01:58:39.478Z,3.30
2022-08-10T02:01:09.474Z,3.42
2022-08-10T02:04:01.687Z,3.33
2022-08-10T02:06:32.838Z,3.28
2022-08-10T02:09:06.569Z,3.70
2022-08-10T02:12:06.142Z,3.95
2022-08-10T02:14:33.457Z,3.53
2022-08-10T02:17:06.719Z,3.47
2022-08-10T02:19:36.572Z,3.30
2022-08-10T02:22:36.625Z,3.47
2022-08-10T02:24:53.687Z,3.58
2022-08-10T02:27:23.810Z,3.58
2022-08-10T02:29:52.568Z,3.58
2022-08-10T02:32:31.691Z,4.17
2022-08-10T02:35:08.049Z,3.25
2022-08-10T02:37:39.912Z,3.78
2022-08-10T02:40:07.683Z,3.67
2022-08-10T02:45:19.469Z,3.50
2022-08-10T02:46:13.070Z,4.03
2022-08-10T02:48:47.750Z,3.40
2022-08-10T02:52:07.105Z,3.40
2022-08-10T02:54:22.022Z,3.42
2022-08-10T02:57:00.644Z,3.80
2022-08-10T02:59:40.318Z,3.60
2022-08-10T03:02:11.959Z,3.88
2022-08-10T03:04:55.487Z,3.30
2022-08-10T03:07:42.415Z,3.20
2022-08-10T03:10:16.417Z,3.28
2022-08-10T03:12:45.544Z,3.50
2022-08-10T03:15:17.053Z,3.28
2022-08-10T03:17:57.594Z,3.65
2022-08-10T03:20:36.980Z,3.30
2022-08-10T03:23:11.106Z,3.97
2022-08-10T03:25:38.376Z,3.45
2022-08-10T03:28:08.810Z,3.35
2022-08-10T03:30:36.540Z,3.30
2022-08-10T03:33:05.170Z,3.50
2022-08-10T03:35:35.057Z,3.28
2022-08-10T03:38:02.392Z,3.60
2022-08-10T03:40:46.022Z,3.15
2022-08-10T03:43:17.365Z,3.25
2022-08-10T03:45:55.320Z,3.45
2022-08-10T03:48:42.487Z,3.47
2022-08-10T03:51:18.952Z,3.30
2022-08-10T03:54:03.056Z,3.33
2022-08-10T03:56:38.573Z,3.53
2022-08-10T03:59:07.047Z,3.38
2022-08-10T04:02:46.138Z,3.38
2022-08-10T04:04:24.935Z,3.60
2022-08-10T04:06:55.396Z,3.30
2022-08-10T04:09:42.750Z,3.78
2022-08-10T04:12:18.009Z,3.38
2022-08-10T04:14:49.731Z,4.05
2022-08-10T04:18:02.723Z,3.88
2022-08-10T04:20:41.504Z,3.55
2022-08-10T04:23:12.236Z,3.88
2022-08-10T04:25:41.787Z,3.72
2022-08-10T04:30:36.928Z,3.20
2022-08-10T04:33:07.995Z,3.70
2022-08-10T04:35:35.438Z,3.55
2022-08-10T04:38:05.681Z,3.67
2022-08-10T04:40:34.877Z,3.70
2022-08-10T04:43:11.268Z,3.63
2022-08-10T04:45:47.395Z,3.30
2022-08-10T04:48:41.170Z,3.45
2022-08-10T04:51:17.032Z,3.47
2022-08-10T04:54:04.206Z,3.28
2022-08-10T04:56:33.523Z,3.63
2022-08-10T04:59:00.796Z,3.70
2022-08-10T05:02:22.306Z,3.80
2022-08-10T05:04:35.325Z,3.90
2022-08-10T05:07:05.155Z,3.80
2022-08-10T05:09:34.243Z,3.58
2022-08-10T05:12:21.465Z,3.97
2022-08-10T05:14:52.045Z,3.90
2022-08-10T05:17:19.843Z,3.83
2022-08-10T05:20:03.102Z,3.65
2022-08-10T05:22:33.995Z,3.92
2022-08-10T05:25:03.114Z,3.50
2022-08-10T05:27:29.846Z,3.60
2022-08-10T05:30:02.443Z,3.63
2022-08-10T05:32:57.918Z,3.63
2022-08-10T05:35:22.751Z,3.63
2022-08-10T05:38:09.489Z,3.45
2022-08-10T05:40:46.504Z,4.00
2022-08-10T05:43:17.017Z,3.97
2022-08-10T05:48:53.978Z,4.05
2022-08-10T05:51:20.903Z,4.38
2022-08-10T05:54:01.748Z,3.83
2022-08-10T05:56:54.258Z,3.90
2022-08-10T06:00:34.429Z,4.35
2022-08-10T06:02:31.709Z,3.67
2022-08-10T06:05:00.358Z,3.55
2022-08-10T06:07:30.151Z,3.67
2022-08-10T06:10:02.834Z,3.10
2022-08-10T06:12:53.955Z,3.80
2022-08-10T06:15:21.366Z,3.78
2022-08-10T06:18:01.743Z,3.60
2022-08-10T06:20:35.469Z,3.85
2022-08-10T06:23:04.181Z,4.07
2022-08-10T06:26:11.253Z,3.70
2022-08-10T06:28:19.878Z,3.45
2022-08-10T06:30:49.182Z,3.28
2022-08-10T06:33:17.193Z,4.18
2022-08-10T06:35:44.897Z,3.80
2022-08-10T06:38:12.951Z,3.90
2022-08-10T06:40:45.436Z,3.33
2022-08-10T06:43:17.038Z,3.53
2022-08-10T06:46:07.711Z,3.10
2022-08-10T06:48:45.086Z,3.58
2022-08-10T06:51:21.642Z,3.40
2022-08-10T06:53:55.343Z,3.50
2022-08-10T06:56:35.965Z,3.70
2022-08-10T06:59:28.061Z,3.80
2022-08-10T07:02:04.688Z,3.60
2022-08-10T07:04:42.126Z,3.40
2022-08-10T07:07:14.371Z,3.83
2022-08-10T07:09:42.052Z,3.92
2022-08-10T07:12:10.324Z,3.63
2022-08-10T07:14:39.795Z,3.88
2022-08-10T07:17:15.996Z,3.30
2022-08-10T07:19:50.421Z,3.50
2022-08-10T07:23:22.802Z,3.60
2022-08-10T07:25:14.887Z,3.50
2022-08-10T07:28:00.129Z,2.80
2022-08-10T07:30:31.350Z,3.10
2022-08-10T07:33:00.204Z,3.47
2022-08-10T07:35:34.718Z,3.58
2022-08-10T07:38:09.654Z,3.28
2022-08-10T07:40:38.870Z,3.15
2022-08-10T07:43:07.137Z,3.10
2022-08-10T07:45:35.687Z,3.70
2022-08-10T07:48:24.054Z,2.55
2022-08-10T07:50:57.729Z,3.20
2022-08-10T07:53:27.782Z,3.08
2022-08-10T07:56:01.798Z,3.40
2022-08-10T07:58:49.873Z,3.30
2022-08-10T08:01:23.530Z,3.25
2022-08-10T08:04:05.417Z,3.20
2022-08-10T08:06:39.205Z,3.00
2022-08-10T08:09:06.278Z,2.50
2022-08-10T08:11:34.183Z,2.97
2022-08-10T08:14:06.461Z,3.17
2022-08-10T08:16:40.845Z,2.83
2022-08-10T08:19:27.725Z,3.22
2022-08-10T08:24:05.068Z,3.10
2022-08-10T08:24:47.577Z,3.28
2022-08-10T08:27:19.778Z,3.20
2022-08-10T08:29:48.735Z,3.15
2022-08-10T08:32:18.503Z,3.10
2022-08-10T08:34:46.846Z,3.00
2022-08-10T08:38:30.409Z,3.42
2022-08-10T08:40:13.619Z,3.17
2022-08-10T08:42:52.061Z,3.22
2022-08-10T08:45:49.149Z,3.03
2022-08-10T08:48:39.331Z,3.10
2022-08-10T08:52:09.292Z,2.90
2022-08-10T08:54:41.894Z,2.60
2022-08-10T08:57:49.649Z,2.80
2022-08-10T09:00:19.424Z,3.20
2022-08-10T09:03:27.971Z,3.17
2022-08-10T09:06:07.564Z,2.83
2022-08-10T09:11:45.715Z,2.53
2022-08-10T09:14:38.729Z,3.03
2022-08-10T09:17:06.731Z,3.13
2022-08-10T09:19:38.585Z,3.17
2022-08-10T09:22:32.549Z,3.03
2022-08-10T09:25:16.727Z,3.80
2022-08-10T09:27:59.725Z,2.90
2022-08-10T09:31:18.804Z,2.80
2022-08-10T09:36:28.094Z,2.60
2022-08-10T09:36:51.981Z,2.50
2022-08-10T09:41:00.891Z,2.80
2022-08-10T09:43:25.927Z,2.67
2022-08-10T09:46:27.517Z,2.30
2022-08-10T09:49:53.256Z,2.30
2022-08-10T09:52:21.985Z,2.47
2022-08-10T09:54:54.750Z,2.38
2022-08-10T09:57:46.769Z,2.50
2022-08-10T10:00:20.756Z,2.75
2022-08-10T10:02:56.307Z,2.40
2022-08-10T10:06:04.616Z,2.38
2022-08-10T10:08:53.671Z,2.58
2022-08-10T10:11:45.719Z,2.60
2022-08-10T10:15:00.206Z,2.50
2022-08-10T10:17:57.478Z,2.60
2022-08-10T10:20:41.824Z,2.45
2022-08-10T10:23:13.779Z,2.78
2022-08-10T10:26:01.726Z,2.40
2022-08-10T10:29:30.769Z,2.40
2022-08-10T10:32:21.922Z,2.40
2022-08-10T10:35:14.590Z,2.38
2022-08-10T10:38:02.934Z,2.70
2022-08-10T10:40:54.614Z,2.55
2022-08-10T10:43:36.614Z,2.15
2022-08-10T10:46:40.954Z,2.88
2022-08-10T10:49:26.805Z,2.40
2022-08-10T10:52:39.184Z,2.88
2022-08-10T10:56:14.158Z,2.50
2022-08-10T10:59:35.430Z,2.42
2022-08-10T11:02:11.442Z,2.42
2022-08-10T11:07:21.973Z,2.42
2022-08-10T11:10:31.883Z,2.60
2022-08-10T11:14:25.130Z,2.67
2022-08-10T11:16:27.929Z,2.58
2022-08-10T11:19:13.292Z,2.65
2022-08-10T11:21:52.079Z,2.30
2022-08-10T11:24:48.271Z,2.40
2022-08-10T11:27:36.332Z,2.25
2022-08-10T11:30:12.765Z,2.40
2022-08-10T11:33:01.770Z,2.40
2022-08-10T11:35:38.106Z,2.05
2022-08-10T11:38:28.512Z,2.45
2022-08-10T11:42:10.323Z,2.60
2022-08-10T11:44:25.553Z,2.53
2022-08-10T11:47:12.574Z,2.60
2022-08-10T11:50:13.724Z,2.60
2022-08-10T11:52:48.821Z,2.30
2022-08-10T11:55:22.873Z,2.50
2022-08-10T11:58:00.863Z,2.78
2022-08-10T12:00:35.885Z,2.53
2022-08-10T12:03:07.370Z,2.20
2022-08-10T12:05:51.533Z,2.35
2022-08-10T12:10:05.064Z,2.10
2022-08-10T12:11:23.945Z,2.30
2022-08-10T12:14:27.517Z,2.15
2022-08-10T12:17:26.801Z,2.20
2022-08-10T12:19:59.574Z,2.20
2022-08-10T12:22:43.167Z,2.88
2022-08-10T12:25:51.633Z,1.95
2022-08-10T12:28:17.707Z,2.28
2022-08-10T12:30:54.153Z,2.30
2022-08-10T12:33:31.703Z,2.35
2022-08-10T12:36:33.450Z,2.15
2022-08-10T12:39:18.679Z,2.05
2022-08-10T12:41:49.845Z,2.20
2022-08-10T12:44:35.683Z,2.60
2022-08-10T12:47:27.554Z,2.10
2022-08-10T12:50:13.598Z,2.28
2022-08-10T12:53:06.475Z,2.47
2022-08-10T12:55:40.542Z,2.13
2022-08-10T12:59:00.445Z,2.17
2022-08-10T13:01:16.107Z,2.42
2022-08-10T13:04:23.371Z,2.50
2022-08-10T13:06:36.334Z,2.28
2022-08-10T13:09:08.989Z,2.58
2022-08-10T13:12:36.152Z,2.20
2022-08-10T13:15:45.424Z,2.47
2022-08-10T13:17:55.698Z,2.50
2022-08-10T13:20:29.091Z,2.30
2022-08-10T13:22:58.892Z,2.50
2022-08-10T13:25:35.273Z,2.22
2022-08-10T13:28:36.339Z,2.35
2022-08-10T13:30:55.623Z,2.70
2022-08-10T13:34:40.301Z,2.10
2022-08-10T13:36:16.149Z,2.42
2022-08-10T13:38:48.859Z,2.03
2022-08-10T13:41:17.319Z,2.10
2022-08-10T13:43:57.044Z,2.42
2022-08-10T13:46:27.272Z,2.25
2022-08-10T13:48:57.835Z,2.28
2022-08-10T13:51:53.720Z,2.17
2022-08-10T13:54:17.045Z,2.40
2022-08-10T13:56:47.681Z,2.05
2022-08-10T13:59:16.595Z,2.50
2022-08-10T14:04:19.731Z,2.03
2022-08-10T14:06:56.446Z,2.20
2022-08-10T14:09:32.249Z,2.30
2022-08-10T14:12:02.325Z,2.10
2022-08-10T14:14:31.325Z,2.10
2022-08-10T14:17:00.112Z,2.25
2022-08-10T14:19:29.670Z,2.25
2022-08-10T14:21:56.667Z,2.10
2022-08-10T14:24:30.518Z,2.20
2022-08-10T14:27:02.208Z,2.00
2022-08-10T14:29:58.675Z,2.28
2022-08-10T14:32:33.507Z,2.10
2022-08-10T14:36:19.624Z,2.30
2022-08-10T14:38:00.206Z,2.30
2022-08-10T14:40:35.948Z,2.10
2022-08-10T14:43:11.697Z,2.10
2022-08-10T14:45:42.454Z,2.10
2022-08-10T14:48:19.554Z,2.38
2022-08-10T14:50:56.107Z,1.92
2022-08-10T14:53:29.457Z,2.50
2022-08-10T14:56:09.467Z,2.15
2022-08-10T14:58:58.918Z,2.38
2022-08-10T15:02:37.506Z,2.30
2022-08-10T15:04:25.971Z,2.40
2022-08-10T15:07:00.980Z,2.10
2022-08-10T15:09:59.881Z,1.92
2022-08-10T15:12:32.537Z,2.15
2022-08-10T15:15:01.388Z,2.03
2022-08-10T15:20:13.469Z,2.30
2022-08-10T15:22:50.459Z,2.50
2022-08-10T15:25:25.208Z,2.70
2022-08-10T15:28:05.655Z,2.10
2022-08-10T15:30:43.021Z,2.65
2022-08-10T15:34:01.882Z,2.40
2022-08-10T15:37:36.131Z,2.53
2022-08-10T15:40:24.507Z,2.78
2022-08-10T15:43:05.677Z,2.22
2022-08-10T15:45:58.668Z,2.22
2022-08-10T15:48:29.124Z,2.30
2022-08-10T15:51:06.017Z,2.33
2022-08-10T15:53:49.972Z,2.78
2022-08-10T15:56:27.880Z,2.42
2022-08-10T15:59:07.968Z,2.35
2022-08-10T16:02:13.290Z,2.25
2022-08-10T16:04:53.190Z,2.63
2022-08-10T16:07:46.107Z,2.47
2022-08-10T16:10:28.358Z,2.42
2022-08-10T16:13:59.532Z,2.50
2022-08-10T16:16:03.028Z,2.47
2022-08-10T16:18:34.508Z,2.65
2022-08-10T16:21:05.505Z,2.30
2022-08-10T16:23:36.454Z,2.47
2022-08-10T16:26:14.829Z,2.60
2022-08-10T16:31:19.994Z,2.25
2022-08-10T16:33:54.945Z,2.13
2022-08-10T16:36:28.917Z,2.08
2022-08-10T16:38:56.552Z,2.17
2022-08-10T16:42:04.081Z,2.60
2022-08-10T16:44:18.629Z,2.63
2022-08-10T16:46:46.472Z,2.33
2022-08-10T16:49:17.645Z,2.70
2022-08-10T16:51:49.146Z,2.10
2022-08-10T16:54:27.135Z,2.50
2022-08-10T16:57:01.330Z,2.35
2022-08-10T16:59:35.337Z,2.38
2022-08-10T17:02:04.217Z,2.58
2022-08-10T17:04:35.411Z,2.78
2022-08-10T17:07:14.511Z,2.22
2022-08-10T17:09:52.588Z,2.25
2022-08-10T17:12:24.197Z,2.63
2022-08-10T17:14:58.059Z,2.28
2022-08-10T17:17:50.844Z,2.63
2022-08-10T17:20:31.375Z,2.83
2022-08-10T17:23:06.514Z,2.53
2022-08-10T17:25:48.371Z,2.50
2022-08-10T17:28:33.208Z,2.17
2022-08-10T17:31:39.702Z,2.50
2022-08-10T17:34:03.035Z,2.13
2022-08-10T17:36:42.009Z,2.30
2022-08-10T17:41:42.346Z,2.30
2022-08-10T17:44:12.166Z,2.22
2022-08-10T17:46:40.443Z,2.65
2022-08-10T17:49:14.197Z,2.20
2022-08-10T17:51:42.335Z,2.80
2022-08-10T17:54:21.688Z,2.60
2022-08-10T17:56:50.679Z,2.20
2022-08-10T17:59:24.438Z,2.60
2022-08-10T18:02:02.292Z,2.22
2022-08-10T18:04:40.917Z,2.57
2022-08-10T18:07:15.074Z,2.60
2022-08-10T18:09:53.204Z,2.50
2022-08-10T18:12:38.052Z,2.80
2022-08-10T18:15:13.797Z,2.22
2022-08-10T18:17:56.949Z,2.20
2022-08-10T18:20:35.806Z,2.38
2022-08-10T18:23:07.183Z,2.10
2022-08-10T18:25:37.634Z,2.10
2022-08-10T18:28:12.460Z,2.70
2022-08-10T18:30:49.897Z,2.10
2022-08-10T18:33:35.812Z,2.10
2022-08-10T18:36:10.409Z,2.45
2022-08-10T18:38:43.158Z,2.30
2022-08-10T18:41:15.698Z,2.33
2022-08-10T18:44:05.076Z,2.45
2022-08-10T18:46:48.826Z,2.22
2022-08-10T18:49:33.353Z,2.30
2022-08-10T18:52:03.720Z,2.70
2022-08-10T18:54:44.913Z,2.25
2022-08-10T18:57:46.104Z,2.63
2022-08-10T19:00:20.818Z,2.25
2022-08-10T19:03:23.633Z,2.30
2022-08-10T19:05:53.873Z,2.40
2022-08-10T19:08:51.883Z,2.38
2022-08-10T19:11:59.328Z,2.50
2022-08-10T19:14:36.655Z,2.85
2022-08-10T19:17:21.274Z,2.80
2022-08-10T19:19:59.966Z,2.53
2022-08-10T19:22:34.447Z,2.45
2022-08-10T19:26:37.871Z,2.80
2022-08-10T19:28:11.007Z,2.45
2022-08-10T19:30:49.476Z,2.40
2022-08-10T19:33:22.280Z,2.60
2022-08-10T19:36:12.222Z,2.60
2022-08-10T19:38:51.271Z,2.65
2022-08-10T19:44:36.797Z,2.40
2022-08-10T19:47:25.838Z,2.67
2022-08-10T19:50:06.869Z,2.72
2022-08-10T19:52:40.115Z,2.40
2022-08-10T19:55:36.134Z,2.80
2022-08-10T19:58:18.700Z,2.40
2022-08-10T20:01:05.845Z,2.63
2022-08-10T20:03:49.450Z,2.50
2022-08-10T20:06:35.268Z,2.72
2022-08-10T20:09:22.504Z,2.55
2022-08-10T20:12:07.700Z,2.45
2022-08-10T20:14:43.683Z,2.95
2022-08-10T20:17:18.757Z,2.72
2022-08-10T20:20:07.429Z,2.50
2022-08-10T20:22:44.832Z,2.30
2022-08-10T20:25:46.996Z,2.70
2022-08-10T20:28:32.644Z,2.55
2022-08-10T20:31:09.220Z,2.70
2022-08-10T20:34:01.336Z,2.70
2022-08-10T20:36:42.588Z,2.92
2022-08-10T20:39:16.767Z,2.60
2022-08-10T20:42:02.289Z,2.22
2022-08-10T20:44:36.965Z,2.30
2022-08-10T20:47:53.765Z,2.67
2022-08-10T20:50:36.539Z,2.13
2022-08-10T20:53:12.225Z,2.55
2022-08-10T20:56:21.612Z,2.80
2022-08-10T20:59:28.950Z,2.20
2022-08-10T21:02:28.092Z,2.28
2022-08-10T21:05:22.933Z,2.55
2022-08-10T21:08:04.858Z,2.22
2022-08-10T21:10:49.975Z,2.15
2022-08-10T21:13:44.962Z,2.17
2022-08-10T21:16:21.332Z,2.28
2022-08-10T21:19:25.083Z,2.65
2022-08-10T21:22:09.831Z,2.30
2022-08-10T21:25:02.181Z,2.20
2022-08-10T21:27:46.905Z,2.63
2022-08-10T21:30:26.427Z,2.35
2022-08-10T21:32:59.242Z,2.60
2022-08-10T21:35:36.802Z,2.30
2022-08-10T21:38:28.749Z,2.40
2022-08-10T21:41:56.558Z,2.42
2022-08-10T21:44:45.118Z,2.50
2022-08-10T21:51:24.193Z,2.20
2022-08-10T21:54:35.706Z,2.40
2022-08-10T21:57:30.178Z,2.33
2022-08-10T22:00:32.414Z,2.10
2022-08-10T22:03:20.778Z,2.38
2022-08-10T22:06:14.828Z,2.30
2022-08-10T22:09:04.829Z,2.30
2022-08-10T22:11:58.838Z,2.65
2022-08-10T22:14:54.083Z,2.42
2022-08-10T22:18:00.701Z,2.47
2022-08-10T22:20:58.826Z,2.70
2022-08-10T22:23:53.014Z,2.47
2022-08-10T22:27:11.385Z,2.33
2022-08-10T22:30:22.991Z,2.73
2022-08-10T22:31:25.374Z,2.40
2022-08-10T22:33:23.467Z,2.33
2022-08-10T22:36:52.010Z,2.20
2022-08-10T22:40:07.724Z,2.60
2022-08-10T22:43:10.278Z,2.60
2022-08-10T22:46:27.353Z,2.25
2022-08-10T22:48:59.946Z,2.40
2022-08-10T22:51:48.818Z,2.38
2022-08-10T22:55:00.108Z,2.55
2022-08-10T22:57:45.659Z,2.67
2022-08-10T23:00:30.999Z,2.42
2022-08-10T23:03:29.920Z,2.30
2022-08-10T23:06:13.493Z,2.20
2022-08-10T23:08:57.698Z,2.40
2022-08-10T23:11:38.118Z,2.53
2022-08-10T23:14:07.485Z,2.40
2022-08-10T23:17:16.933Z,2.08
2022-08-10T23:19:47.551Z,2.80
2022-08-10T23:22:16.560Z,2.20
2022-08-10T23:24:53.596Z,2.30
2022-08-10T23:27:39.115Z,2.38
2022-08-10T23:30:17.795Z,2.17
2022-08-10T23:32:51.952Z,1.95
2022-08-10T23:36:13.817Z,2.60
2022-08-10T23:38:14.862Z,2.45
2022-08-10T23:40:47.315Z,2.38
2022-08-10T23:43:19.536Z,2.13
2022-08-10T23:45:54.297Z,2.40
2022-08-10T23:48:36.221Z,2.20
2022-08-10T23:51:16.793Z,2.28
2022-08-10T23:53:46.839Z,2.30
2022-08-10T23:58:53.068Z,2.30
